createdAt,value
2019-05-21T00:00:24.215Z,14.71
2019-05-21T00:02:57.576Z,14.68
2019-05-21T00:05:30.504Z,14.66
2019-05-21T00:08:03.433Z,14.66
2019-05-21T00:10:36.262Z,14.58
2019-05-21T00:13:09.374Z,14.55
2019-05-21T00:15:42.213Z,14.55
2019-05-21T00:18:15.013Z,14.54
2019-05-21T00:20:47.858Z,14.58
2019-05-21T00:23:20.644Z,14.55
2019-05-21T00:25:53.533Z,14.54
2019-05-21T00:28:42.202Z,14.56
2019-05-21T00:32:08.916Z,14.55
2019-05-21T00:35:46.519Z,14.53
2019-05-21T00:39:13.441Z,14.49
2019-05-21T00:42:03.561Z,14.50
2019-05-21T00:44:40.412Z,14.53
2019-05-21T00:47:14.297Z,14.50
2019-05-21T00:49:47.122Z,14.51
2019-05-21T00:52:20.002Z,14.46
2019-05-21T00:54:52.901Z,14.44
2019-05-21T00:57:25.787Z,14.42
2019-05-21T00:59:59.682Z,14.41
2019-05-21T01:02:32.698Z,14.37
2019-05-21T01:05:05.677Z,14.35
2019-05-21T01:07:38.569Z,14.35
2019-05-21T01:10:11.525Z,14.33
2019-05-21T01:12:44.415Z,14.29
2019-05-21T01:15:17.255Z,14.20
2019-05-21T01:17:50.288Z,14.10
2019-05-21T01:20:23.352Z,14.08
2019-05-21T01:22:56.247Z,14.09
2019-05-21T01:25:29.364Z,14.06
2019-05-21T01:28:02.277Z,13.95
2019-05-21T01:30:35.096Z,13.83
2019-05-21T01:33:07.906Z,13.82
2019-05-21T01:35:40.768Z,13.63
2019-05-21T01:38:13.558Z,13.57
2019-05-21T01:40:46.469Z,13.58
2019-05-21T01:43:19.308Z,13.62
2019-05-21T01:45:52.145Z,13.56
2019-05-21T01:48:24.963Z,13.56
2019-05-21T01:50:57.842Z,13.48
2019-05-21T01:53:30.725Z,13.43
2019-05-21T01:56:03.608Z,13.45
2019-05-21T01:58:37.683Z,13.35
2019-05-21T02:01:10.547Z,13.31
2019-05-21T02:03:43.771Z,13.26
2019-05-21T02:06:16.775Z,13.22
2019-05-21T02:08:49.581Z,13.19
2019-05-21T02:11:22.578Z,13.14
2019-05-21T02:13:55.485Z,13.17
2019-05-21T02:16:28.282Z,13.20
2019-05-21T02:19:01.091Z,13.26
2019-05-21T02:21:34.170Z,13.26
2019-05-21T02:24:07.135Z,13.24
2019-05-21T02:26:39.939Z,13.20
2019-05-21T02:29:12.760Z,13.16
2019-05-21T02:31:45.630Z,13.12
2019-05-21T02:34:18.398Z,13.11
2019-05-21T02:36:51.215Z,13.06
2019-05-21T02:39:25.012Z,12.96
2019-05-21T02:41:57.858Z,12.93
2019-05-21T02:44:30.705Z,12.88
2019-05-21T02:47:03.632Z,12.88
2019-05-21T02:49:36.508Z,12.92
2019-05-21T02:52:09.369Z,12.95
2019-05-21T02:54:42.255Z,12.92
2019-05-21T02:57:15.089Z,12.92
2019-05-21T02:59:49.581Z,12.93
2019-05-21T03:02:29.991Z,12.97
2019-05-21T03:05:02.777Z,12.99
2019-05-21T03:07:35.760Z,13.01
2019-05-21T03:10:08.977Z,13.02
2019-05-21T03:12:41.777Z,13.01
2019-05-21T03:15:14.797Z,13.02
2019-05-21T03:17:47.617Z,13.02
2019-05-21T03:20:20.799Z,13.04
2019-05-21T03:22:53.680Z,13.05
2019-05-21T03:25:26.501Z,13.10
2019-05-21T03:27:59.316Z,13.11
2019-05-21T03:30:33.286Z,13.10
2019-05-21T03:33:06.148Z,13.15
2019-05-21T03:35:38.999Z,13.22
2019-05-21T03:38:11.832Z,13.31
2019-05-21T03:40:44.712Z,13.40
2019-05-21T03:43:17.527Z,13.50
2019-05-21T03:45:50.309Z,13.63
2019-05-21T03:48:23.118Z,13.69
2019-05-21T03:50:56.018Z,13.72
2019-05-21T03:53:28.855Z,13.72
2019-05-21T03:56:01.737Z,13.82
2019-05-21T03:58:34.643Z,13.88
2019-05-21T04:01:07.451Z,14.00
2019-05-21T04:03:41.348Z,14.14
2019-05-21T04:06:14.181Z,14.28
2019-05-21T04:08:47.074Z,14.43
2019-05-21T04:11:19.880Z,14.63
2019-05-21T04:13:52.713Z,14.77
2019-05-21T04:16:44.695Z,14.92
2019-05-21T04:19:31.115Z,15.05
2019-05-21T04:22:03.930Z,15.16
2019-05-21T04:24:36.849Z,15.28
2019-05-21T04:27:09.646Z,15.42
2019-05-21T04:29:42.688Z,15.50
2019-05-21T04:32:15.541Z,15.55
2019-05-21T04:34:48.742Z,15.58
2019-05-21T04:37:21.937Z,15.77
2019-05-21T04:39:55.003Z,16.04
2019-05-21T04:42:27.829Z,16.21
2019-05-21T04:45:00.669Z,16.40
2019-05-21T04:47:33.486Z,16.62
2019-05-21T04:50:06.834Z,16.75
2019-05-21T04:52:39.639Z,16.92
2019-05-21T04:55:12.829Z,17.08
2019-05-21T04:57:45.704Z,17.24
2019-05-21T05:00:18.649Z,17.46
2019-05-21T05:02:51.481Z,17.59
2019-05-21T05:05:24.422Z,17.76
2019-05-21T05:07:57.237Z,17.81
2019-05-21T05:10:30.232Z,17.84
2019-05-21T05:13:04.089Z,18.01
2019-05-21T05:15:36.945Z,18.04
2019-05-21T05:18:09.837Z,18.33
2019-05-21T05:20:42.722Z,18.56
2019-05-21T05:23:15.615Z,18.58
2019-05-21T05:25:48.442Z,18.54
2019-05-21T05:28:21.258Z,18.52
2019-05-21T05:30:54.154Z,18.73
2019-05-21T05:33:26.991Z,18.92
2019-05-21T05:35:59.828Z,19.00
2019-05-21T05:38:32.688Z,19.10
2019-05-21T05:41:05.515Z,19.33
2019-05-21T05:43:38.393Z,19.60
2019-05-21T05:46:11.289Z,19.60
2019-05-21T05:49:09.089Z,19.62
2019-05-21T05:51:41.973Z,19.76
2019-05-21T05:54:14.857Z,19.84
2019-05-21T05:56:47.752Z,20.09
2019-05-21T05:59:20.629Z,20.27
2019-05-21T06:01:53.530Z,20.43
2019-05-21T06:04:26.429Z,20.67
2019-05-21T06:06:59.294Z,20.91
2019-05-21T06:09:32.257Z,21.11
2019-05-21T06:12:05.161Z,21.45
2019-05-21T06:14:38.083Z,21.56
2019-05-21T06:17:11.041Z,21.55
2019-05-21T06:19:43.908Z,21.90
2019-05-21T06:22:16.819Z,22.25
2019-05-21T06:24:49.929Z,22.45
2019-05-21T06:27:22.914Z,22.67
2019-05-21T06:29:55.782Z,22.69
2019-05-21T06:32:28.582Z,22.79
2019-05-21T06:35:01.387Z,22.99
2019-05-21T06:37:34.272Z,23.11
2019-05-21T06:40:08.567Z,23.09
2019-05-21T06:42:41.487Z,23.28
2019-05-21T06:45:15.114Z,23.23
2019-05-21T06:47:47.975Z,23.28
2019-05-21T06:50:21.182Z,23.55
2019-05-21T06:52:54.087Z,23.96
2019-05-21T06:55:26.985Z,23.76
2019-05-21T06:58:00.766Z,23.69
2019-05-21T07:00:33.641Z,23.93
2019-05-21T07:03:06.657Z,24.23
2019-05-21T07:05:39.520Z,24.55
2019-05-21T07:08:12.516Z,24.61
2019-05-21T07:10:45.343Z,24.56
2019-05-21T07:13:18.232Z,24.44
2019-05-21T07:15:51.154Z,24.46
2019-05-21T07:18:24.128Z,24.53
2019-05-21T07:20:57.037Z,24.58
2019-05-21T07:23:29.908Z,24.95
2019-05-21T07:26:02.740Z,25.21
2019-05-21T07:28:35.693Z,24.38
2019-05-21T07:31:08.613Z,24.48
2019-05-21T07:33:41.531Z,24.89
2019-05-21T07:36:14.623Z,24.40
2019-05-21T07:38:53.305Z,24.25
2019-05-21T07:41:22.099Z,24.51
2019-05-21T07:43:54.903Z,24.93
2019-05-21T07:46:28.692Z,25.20
2019-05-21T07:49:01.496Z,25.13
2019-05-21T07:51:35.376Z,24.99
2019-05-21T07:54:08.249Z,24.68
2019-05-21T07:56:41.043Z,24.31
2019-05-21T07:59:13.823Z,24.21
2019-05-21T08:01:46.622Z,24.40
2019-05-21T08:04:19.548Z,24.81
2019-05-21T08:06:53.471Z,24.76
2019-05-21T08:09:26.676Z,24.67
2019-05-21T08:11:59.476Z,24.93
2019-05-21T08:14:32.474Z,25.56
2019-05-21T08:17:05.378Z,25.57
2019-05-21T08:19:38.780Z,25.82
2019-05-21T08:22:11.568Z,26.23
2019-05-21T08:24:44.527Z,26.63
2019-05-21T08:27:17.368Z,26.57
2019-05-21T08:29:50.237Z,26.70
2019-05-21T08:32:23.148Z,26.56
2019-05-21T08:34:56.135Z,26.43
2019-05-21T08:37:29.034Z,26.73
2019-05-21T08:40:01.991Z,27.11
2019-05-21T08:42:34.936Z,27.38
2019-05-21T08:45:09.578Z,27.60
2019-05-21T08:47:42.477Z,27.79
2019-05-21T08:50:15.464Z,27.47
2019-05-21T08:52:48.293Z,27.27
2019-05-21T08:55:21.189Z,27.18
2019-05-21T09:00:29.165Z,27.30
2019-05-21T09:03:02.050Z,27.60
2019-05-21T09:03:13.830Z,27.05
2019-05-21T09:05:34.833Z,27.40
2019-05-21T09:08:07.861Z,27.10
2019-05-21T09:10:43.618Z,26.68
2019-05-21T09:13:18.152Z,26.55
2019-05-21T09:15:51.190Z,26.66
2019-05-21T09:18:24.072Z,26.78
2019-05-21T09:20:56.895Z,26.79
2019-05-21T09:23:29.681Z,26.93
2019-05-21T09:26:02.468Z,26.18
2019-05-21T09:28:35.280Z,26.66
2019-05-21T09:31:08.059Z,26.21
2019-05-21T09:33:42.054Z,26.24
2019-05-21T09:36:14.923Z,27.29
2019-05-21T09:38:47.732Z,26.91
2019-05-21T09:41:20.514Z,26.75
2019-05-21T09:43:53.401Z,26.14
2019-05-21T09:46:26.323Z,26.80
2019-05-21T09:48:59.230Z,27.36
2019-05-21T09:51:32.058Z,26.79
2019-05-21T09:54:05.722Z,27.22
2019-05-21T09:56:38.718Z,27.84
2019-05-21T09:59:32.409Z,28.50
2019-05-21T10:02:10.309Z,28.03
2019-05-21T10:04:43.108Z,28.26
2019-05-21T10:07:16.192Z,28.52
2019-05-21T10:09:49.079Z,28.24
2019-05-21T10:12:22.734Z,27.07
2019-05-21T10:14:55.620Z,27.12
2019-05-21T10:17:28.435Z,27.19
2019-05-21T10:20:01.368Z,26.87
2019-05-21T10:22:34.235Z,26.62
2019-05-21T10:25:07.868Z,26.76
2019-05-21T10:27:40.779Z,27.03
2019-05-21T10:30:13.977Z,27.33
2019-05-21T10:32:46.903Z,27.92
2019-05-21T10:35:19.795Z,28.07
2019-05-21T10:37:55.369Z,27.65
2019-05-21T10:40:27.330Z,27.00
2019-05-21T10:43:00.215Z,26.38
2019-05-21T10:45:33.083Z,26.01
2019-05-21T10:48:05.952Z,25.73
2019-05-21T10:50:38.825Z,25.73
2019-05-21T10:53:11.688Z,25.69
2019-05-21T10:55:44.580Z,25.41
2019-05-21T10:58:17.381Z,25.16
2019-05-21T11:00:52.021Z,25.06
2019-05-21T11:03:43.865Z,25.01
2019-05-21T11:06:17.171Z,24.87
2019-05-21T11:08:50.264Z,24.70
2019-05-21T11:11:23.376Z,24.69
2019-05-21T11:13:56.214Z,24.55
2019-05-21T11:16:29.084Z,24.27
2019-05-21T11:19:02.340Z,24.06
2019-05-21T11:21:35.320Z,23.83
2019-05-21T11:24:08.152Z,23.61
2019-05-21T11:26:41.071Z,23.49
2019-05-21T11:29:13.901Z,23.43
2019-05-21T11:31:56.401Z,23.44
2019-05-21T11:34:21.355Z,23.41
2019-05-21T11:36:54.204Z,23.42
2019-05-21T11:39:27.057Z,23.42
2019-05-21T11:41:59.829Z,23.58
2019-05-21T11:44:32.646Z,23.59
2019-05-21T11:47:05.884Z,23.76
2019-05-21T11:49:38.767Z,24.44
2019-05-21T11:52:11.671Z,24.88
2019-05-21T11:54:44.453Z,24.75
2019-05-21T11:57:17.361Z,24.98
2019-05-21T11:59:50.273Z,25.08
2019-05-21T12:02:23.254Z,24.94
2019-05-21T12:04:56.092Z,24.75
2019-05-21T12:07:29.112Z,24.57
2019-05-21T12:10:01.944Z,24.43
2019-05-21T12:12:34.903Z,24.32
2019-05-21T12:15:09.018Z,24.08
2019-05-21T12:17:42.504Z,23.93
2019-05-21T12:20:35.282Z,23.83
2019-05-21T12:22:58.227Z,23.71
2019-05-21T12:25:32.482Z,23.48
2019-05-21T12:28:05.543Z,23.39
2019-05-21T12:30:39.398Z,23.37
2019-05-21T12:33:12.235Z,23.38
2019-05-21T12:35:45.544Z,23.29
2019-05-21T12:38:18.400Z,23.31
2019-05-21T12:40:52.558Z,23.09
2019-05-21T12:43:25.447Z,22.49
2019-05-21T12:45:58.223Z,22.14
2019-05-21T12:48:31.532Z,21.82
2019-05-21T12:51:04.593Z,21.42
2019-05-21T12:53:37.695Z,21.03
2019-05-21T12:56:10.810Z,20.78
2019-05-21T12:58:44.289Z,20.78
2019-05-21T13:01:17.353Z,20.79
2019-05-21T13:03:50.351Z,20.86
2019-05-21T13:06:23.416Z,20.95
2019-05-21T13:08:56.628Z,20.64
2019-05-21T13:11:31.111Z,20.67
2019-05-21T13:14:06.367Z,20.97
2019-05-21T13:16:42.149Z,21.20
2019-05-21T13:19:15.056Z,21.47
2019-05-21T13:21:48.224Z,21.82
2019-05-21T13:24:21.359Z,22.18
2019-05-21T13:26:54.363Z,22.38
2019-05-21T13:29:27.451Z,22.42
2019-05-21T13:32:00.383Z,22.45
2019-05-21T13:34:33.254Z,22.36
2019-05-21T13:37:08.728Z,22.34
2019-05-21T13:39:50.192Z,22.32
2019-05-21T13:42:19.818Z,22.33
2019-05-21T13:44:53.077Z,22.41
2019-05-21T13:47:27.333Z,22.44
2019-05-21T13:50:04.060Z,22.56
2019-05-21T13:52:36.954Z,22.68
2019-05-21T13:55:10.717Z,22.69
2019-05-21T13:57:47.001Z,22.58
2019-05-21T14:00:26.322Z,22.44
2019-05-21T14:03:01.597Z,22.36
2019-05-21T14:05:38.275Z,22.27
2019-05-21T14:08:11.376Z,22.31
2019-05-21T14:10:44.341Z,22.30
2019-05-21T14:13:17.374Z,22.15
2019-05-21T14:15:50.215Z,22.05
2019-05-21T14:18:23.289Z,21.93
2019-05-21T14:20:59.124Z,21.88
2019-05-21T14:23:35.136Z,21.83
2019-05-21T14:26:08.429Z,21.81
2019-05-21T14:28:43.288Z,21.83
2019-05-21T14:31:24.971Z,21.85
2019-05-21T14:33:57.914Z,21.82
2019-05-21T14:36:30.936Z,21.79
2019-05-21T14:39:06.586Z,21.81
2019-05-21T14:41:39.549Z,21.82
2019-05-21T14:44:12.564Z,21.75
2019-05-21T14:46:45.789Z,21.67
2019-05-21T14:49:20.087Z,21.57
2019-05-21T14:51:53.752Z,21.57
2019-05-21T14:54:27.279Z,21.51
2019-05-21T14:57:00.419Z,21.51
2019-05-21T14:59:36.579Z,21.44
2019-05-21T15:02:09.428Z,21.38
2019-05-21T15:04:42.819Z,21.35
2019-05-21T15:07:16.068Z,21.25
2019-05-21T15:09:53.161Z,21.32
2019-05-21T15:12:23.564Z,21.36
2019-05-21T15:14:56.398Z,21.32
2019-05-21T15:17:29.508Z,21.34
2019-05-21T15:20:05.688Z,21.44
2019-05-21T15:22:38.594Z,21.47
2019-05-21T15:25:11.726Z,21.47
2019-05-21T15:27:44.704Z,21.42
2019-05-21T15:30:17.864Z,21.38
2019-05-21T15:32:50.824Z,21.40
2019-05-21T15:35:23.656Z,21.46
2019-05-21T15:37:56.882Z,21.50
2019-05-21T15:40:29.851Z,21.57
2019-05-21T15:43:02.823Z,21.60
2019-05-21T15:45:35.734Z,21.54
2019-05-21T15:48:08.527Z,21.57
2019-05-21T15:50:41.425Z,21.62
2019-05-21T15:53:14.249Z,21.66
2019-05-21T15:55:47.226Z,21.66
2019-05-21T15:58:20.246Z,21.71
2019-05-21T16:00:53.350Z,21.72
2019-05-21T16:03:26.113Z,21.74
2019-05-21T16:05:59.141Z,21.73
2019-05-21T16:08:33.310Z,21.78
2019-05-21T16:11:06.391Z,21.79
2019-05-21T16:13:39.285Z,21.81
2019-05-21T16:16:12.273Z,21.81
2019-05-21T16:18:45.229Z,21.83
2019-05-21T16:21:19.664Z,21.83
2019-05-21T16:23:52.501Z,21.78
2019-05-21T16:26:25.986Z,21.71
2019-05-21T16:28:58.913Z,21.66
2019-05-21T16:31:31.916Z,21.63
2019-05-21T16:34:04.797Z,21.60
2019-05-21T16:36:37.739Z,21.55
2019-05-21T16:39:10.675Z,21.53
2019-05-21T16:41:45.325Z,21.51
2019-05-21T16:44:18.176Z,21.48
2019-05-21T16:46:51.060Z,21.43
2019-05-21T16:49:24.038Z,21.43
2019-05-21T16:51:56.856Z,21.44
2019-05-21T16:54:29.698Z,21.45
2019-05-21T16:57:02.520Z,21.47
2019-05-21T16:59:35.294Z,21.47
2019-05-21T17:02:08.771Z,21.46
2019-05-21T17:04:41.742Z,21.43
2019-05-21T17:07:14.698Z,21.41
2019-05-21T17:09:47.603Z,21.39
2019-05-21T17:12:20.480Z,21.35
2019-05-21T17:14:53.518Z,21.29
2019-05-21T17:17:26.714Z,21.19
2019-05-21T17:19:59.617Z,21.09
2019-05-21T17:22:32.504Z,21.06
2019-05-21T17:25:06.239Z,21.03
2019-05-21T17:27:39.264Z,20.98
2019-05-21T17:30:13.199Z,20.89
2019-05-21T17:32:46.356Z,20.81
2019-05-21T17:35:19.402Z,20.77
2019-05-21T17:37:52.773Z,20.74
2019-05-21T17:40:25.739Z,20.70
2019-05-21T17:42:58.741Z,20.69
2019-05-21T17:45:31.696Z,20.68
2019-05-21T17:48:04.594Z,20.66
2019-05-21T17:50:37.805Z,20.64
2019-05-21T17:53:10.724Z,20.55
2019-05-21T17:55:43.628Z,20.48
2019-05-21T17:58:17.686Z,20.41
2019-05-21T18:00:54.553Z,20.36
2019-05-21T18:03:27.815Z,20.31
2019-05-21T18:06:00.910Z,20.26
2019-05-21T18:08:34.397Z,20.22
2019-05-21T18:11:07.634Z,20.21
2019-05-21T18:13:41.778Z,20.20
2019-05-21T18:16:15.305Z,20.19
2019-05-21T18:18:48.221Z,20.18
2019-05-21T18:21:22.057Z,20.16
2019-05-21T18:23:55.013Z,20.17
2019-05-21T18:26:27.843Z,20.17
2019-05-21T18:29:01.063Z,20.12
2019-05-21T18:31:33.938Z,19.98
2019-05-21T18:34:07.132Z,19.93
2019-05-21T18:36:40.167Z,19.89
2019-05-21T18:39:13.006Z,19.90
2019-05-21T18:41:46.466Z,19.84
2019-05-21T18:44:19.625Z,19.65
2019-05-21T18:46:52.659Z,19.58
2019-05-21T18:49:27.659Z,19.19
2019-05-21T18:52:00.474Z,18.78
2019-05-21T18:54:33.394Z,18.16
2019-05-21T18:57:06.888Z,17.85
2019-05-21T18:59:40.278Z,17.70
2019-05-21T19:02:14.008Z,17.62
2019-05-21T19:04:47.101Z,17.49
2019-05-21T19:07:20.159Z,17.49
2019-05-21T19:09:53.190Z,17.52
2019-05-21T19:12:37.620Z,17.52
2019-05-21T19:15:01.688Z,17.52
2019-05-21T19:17:36.247Z,17.47
2019-05-21T19:20:09.892Z,17.51
2019-05-21T19:22:43.969Z,17.55
2019-05-21T19:25:17.352Z,17.59
2019-05-21T19:27:50.226Z,17.60
2019-05-21T19:30:23.499Z,17.64
2019-05-21T19:32:56.803Z,17.65
2019-05-21T19:35:32.887Z,17.67
2019-05-21T19:38:04.446Z,17.66
2019-05-21T19:40:37.580Z,17.64
2019-05-21T19:43:10.606Z,17.68
2019-05-21T19:45:43.614Z,17.72
2019-05-21T19:48:16.541Z,17.68
2019-05-21T19:50:49.659Z,17.64
2019-05-21T19:53:22.822Z,17.66
2019-05-21T19:55:56.354Z,17.64
2019-05-21T19:58:29.376Z,17.68
2019-05-21T20:01:02.571Z,17.68
2019-05-21T20:03:35.677Z,17.66
2019-05-21T20:06:10.532Z,17.71
2019-05-21T20:08:44.663Z,17.74
2019-05-21T20:11:18.931Z,17.68
2019-05-21T20:13:51.931Z,17.68
2019-05-21T20:16:27.571Z,17.67
2019-05-21T20:19:00.539Z,17.60
2019-05-21T20:21:35.003Z,17.65
2019-05-21T20:24:09.134Z,17.64
2019-05-21T20:26:42.176Z,17.63
2019-05-21T20:29:15.289Z,17.62
2019-05-21T20:31:48.792Z,17.63
2019-05-21T20:34:22.382Z,17.68
2019-05-21T20:36:56.659Z,17.74
2019-05-21T20:39:31.039Z,17.72
2019-05-21T20:42:05.846Z,17.74
2019-05-21T20:44:38.864Z,17.75
2019-05-21T20:47:13.620Z,17.75
2019-05-21T20:49:49.003Z,17.75
2019-05-21T20:52:21.981Z,17.71
2019-05-21T20:54:56.992Z,17.72
2019-05-21T20:57:31.043Z,17.70
2019-05-21T21:00:04.413Z,17.70
2019-05-21T21:02:40.839Z,17.64
2019-05-21T21:05:14.846Z,17.58
2019-05-21T21:07:47.993Z,17.58
2019-05-21T21:10:21.242Z,17.57
2019-05-21T21:12:54.418Z,17.58
2019-05-21T21:15:27.406Z,17.59
2019-05-21T21:18:01.017Z,17.56
2019-05-21T21:20:34.676Z,17.51
2019-05-21T21:23:08.160Z,17.56
2019-05-21T21:25:41.216Z,17.52
2019-05-21T21:28:14.220Z,17.48
2019-05-21T21:30:48.378Z,17.52
2019-05-21T21:33:21.723Z,17.57
2019-05-21T21:35:54.628Z,17.54
2019-05-21T21:38:30.687Z,17.55
2019-05-21T21:41:03.795Z,17.57
2019-05-21T21:43:37.239Z,17.54
2019-05-21T21:46:10.216Z,17.38
2019-05-21T21:48:45.651Z,17.34
2019-05-21T21:51:18.636Z,17.35
2019-05-21T21:53:52.827Z,17.26
2019-05-21T21:56:25.840Z,17.20
2019-05-21T21:58:58.651Z,17.13
2019-05-21T22:02:00.189Z,17.04
2019-05-21T22:04:35.772Z,17.02
2019-05-21T22:07:08.652Z,17.02
2019-05-21T22:09:43.025Z,17.05
2019-05-21T22:12:17.903Z,17.09
2019-05-21T22:15:02.071Z,17.09
2019-05-21T22:17:36.143Z,17.06
2019-05-21T22:20:10.356Z,16.99
2019-05-21T22:22:43.369Z,17.00
2019-05-21T22:25:16.695Z,16.94
2019-05-21T22:27:49.573Z,16.92
2019-05-21T22:30:22.569Z,16.92
2019-05-21T22:32:55.382Z,16.96
2019-05-21T22:35:28.299Z,16.97
2019-05-21T22:38:01.200Z,16.99
2019-05-21T22:40:34.114Z,16.96
2019-05-21T22:43:07.344Z,16.99
2019-05-21T22:45:40.223Z,16.98
2019-05-21T22:48:13.304Z,17.00
2019-05-21T22:50:47.171Z,16.99
2019-05-21T22:53:20.174Z,16.95
2019-05-21T22:55:53.215Z,16.89
2019-05-21T22:58:26.134Z,16.94
2019-05-21T23:01:00.359Z,16.90
2019-05-21T23:03:33.386Z,16.85
2019-05-21T23:06:06.304Z,16.82
2019-05-21T23:08:40.006Z,16.82
2019-05-21T23:11:12.840Z,16.81
2019-05-21T23:13:45.906Z,16.86
2019-05-21T23:16:19.090Z,16.83
2019-05-21T23:19:10.658Z,16.77
2019-05-21T23:21:49.631Z,16.79
2019-05-21T23:24:23.771Z,16.75
2019-05-21T23:26:57.417Z,16.79
2019-05-21T23:29:30.969Z,16.79
2019-05-21T23:32:04.582Z,16.81
2019-05-21T23:34:38.453Z,16.79
2019-05-21T23:37:18.489Z,16.73
2019-05-21T23:39:54.566Z,16.76
2019-05-21T23:42:29.901Z,16.77
2019-05-21T23:45:02.905Z,16.73
2019-05-21T23:47:35.952Z,16.73
2019-05-21T23:50:09.758Z,16.71
2019-05-21T23:52:43.339Z,16.70
2019-05-21T23:55:16.626Z,16.71
2019-05-21T23:57:49.420Z,16.64
